createdAt,value
2023-03-14T00:01:31.836Z,86.54
2023-03-14T00:03:58.161Z,86.52
2023-03-14T00:06:24.704Z,86.60
2023-03-14T00:08:51.042Z,86.60
2023-03-14T00:11:17.592Z,86.72
2023-03-14T00:13:43.990Z,86.82
2023-03-14T00:16:10.351Z,86.77
2023-03-14T00:18:36.708Z,86.48
2023-03-14T00:21:03.085Z,86.62
2023-03-14T00:23:29.634Z,86.52
2023-03-14T00:25:55.965Z,86.74
2023-03-14T00:28:22.632Z,86.74
2023-03-14T00:30:48.955Z,86.57
2023-03-14T00:33:15.279Z,86.97
2023-03-14T00:35:41.635Z,86.73
2023-03-14T00:38:07.988Z,86.79
2023-03-14T00:40:35.040Z,86.79
2023-03-14T00:43:01.373Z,86.74
2023-03-14T00:45:27.701Z,86.95
2023-03-14T00:47:54.024Z,86.73
2023-03-14T00:50:20.360Z,86.89
2023-03-14T00:52:46.686Z,86.81
2023-03-14T00:55:13.022Z,86.74
2023-03-14T00:57:39.355Z,86.83
2023-03-14T01:00:05.680Z,87.12
2023-03-14T01:02:32.031Z,86.75
2023-03-14T01:04:58.609Z,86.92
2023-03-14T01:07:24.967Z,86.97
2023-03-14T01:09:51.523Z,86.69
2023-03-14T01:12:17.865Z,86.70
2023-03-14T01:14:44.193Z,86.88
2023-03-14T01:17:10.533Z,86.74
2023-03-14T01:19:37.095Z,86.93
2023-03-14T01:22:03.443Z,86.78
2023-03-14T01:24:29.788Z,86.81
2023-03-14T01:26:56.134Z,86.67
2023-03-14T01:29:25.641Z,87.02
2023-03-14T01:31:52.047Z,86.73
2023-03-14T01:34:18.598Z,86.99
2023-03-14T01:36:44.943Z,86.97
2023-03-14T01:39:11.491Z,86.72
2023-03-14T01:41:38.036Z,86.84
2023-03-14T01:44:04.382Z,86.81
2023-03-14T01:46:30.924Z,86.95
2023-03-14T01:48:57.296Z,87.09
2023-03-14T01:51:23.846Z,86.89
2023-03-14T01:53:50.176Z,86.67
2023-03-14T01:56:16.507Z,86.60
2023-03-14T01:58:42.843Z,86.95
2023-03-14T02:01:09.200Z,86.72
2023-03-14T02:03:35.592Z,86.94
2023-03-14T02:06:01.939Z,86.58
2023-03-14T02:08:28.263Z,86.26
2023-03-14T02:10:54.605Z,86.75
2023-03-14T02:13:20.951Z,86.62
2023-03-14T02:15:47.286Z,86.57
2023-03-14T02:18:13.827Z,86.79
2023-03-14T02:20:40.183Z,86.60
2023-03-14T02:23:06.522Z,86.64
2023-03-14T02:25:32.886Z,86.54
2023-03-14T02:27:59.208Z,86.57
2023-03-14T02:30:25.566Z,86.43
2023-03-14T02:32:51.895Z,86.52
2023-03-14T02:35:18.253Z,86.35
2023-03-14T02:37:44.609Z,86.44
2023-03-14T02:40:11.167Z,86.55
2023-03-14T02:42:37.497Z,86.56
2023-03-14T02:45:03.818Z,86.55
2023-03-14T02:47:30.179Z,86.83
2023-03-14T02:49:56.525Z,86.58
2023-03-14T02:52:22.856Z,86.81
2023-03-14T02:54:49.194Z,86.70
2023-03-14T02:57:15.524Z,86.83
2023-03-14T02:59:41.872Z,86.67
2023-03-14T03:02:08.209Z,86.99
2023-03-14T03:04:34.542Z,86.97
2023-03-14T03:07:00.884Z,87.05
2023-03-14T03:09:27.231Z,86.68
2023-03-14T03:11:53.801Z,87.00
2023-03-14T03:14:20.139Z,86.93
2023-03-14T03:16:46.592Z,87.20
2023-03-14T03:19:12.994Z,86.74
2023-03-14T03:21:39.321Z,87.08
2023-03-14T03:24:05.880Z,86.81
2023-03-14T03:26:32.168Z,86.95
2023-03-14T03:28:58.508Z,86.87
2023-03-14T03:31:24.838Z,86.99
2023-03-14T03:33:51.168Z,87.10
2023-03-14T03:36:17.512Z,87.04
2023-03-14T03:38:43.848Z,87.01
2023-03-14T03:41:10.187Z,86.93
2023-03-14T03:43:36.524Z,86.93
2023-03-14T03:46:02.892Z,86.75
2023-03-14T03:48:29.252Z,86.79
2023-03-14T03:50:55.804Z,86.70
2023-03-14T03:53:32.731Z,86.51
2023-03-14T03:55:59.767Z,86.55
2023-03-14T03:58:26.312Z,86.79
2023-03-14T04:00:52.856Z,86.91
2023-03-14T04:03:19.487Z,86.84
2023-03-14T04:05:45.813Z,86.94
2023-03-14T04:08:12.961Z,87.06
2023-03-14T04:10:39.289Z,87.07
2023-03-14T04:13:05.575Z,87.37
2023-03-14T04:15:31.912Z,87.17
2023-03-14T04:17:58.241Z,86.98
2023-03-14T04:20:24.774Z,87.18
2023-03-14T04:22:51.282Z,87.07
2023-03-14T04:25:17.947Z,87.02
2023-03-14T04:27:44.320Z,86.98
2023-03-14T04:30:10.679Z,86.97
2023-03-14T04:32:37.023Z,86.94
2023-03-14T04:35:03.372Z,86.78
2023-03-14T04:37:29.942Z,86.80
2023-03-14T04:39:56.299Z,86.54
2023-03-14T04:42:23.717Z,86.02
2023-03-14T04:44:50.044Z,86.26
2023-03-14T04:47:16.386Z,86.07
2023-03-14T04:49:42.740Z,86.23
2023-03-14T04:52:09.069Z,86.20
2023-03-14T04:54:35.414Z,86.52
2023-03-14T04:57:01.748Z,86.42
2023-03-14T04:59:28.917Z,86.70
2023-03-14T05:01:55.314Z,86.56
2023-03-14T05:04:21.714Z,86.41
2023-03-14T05:06:48.076Z,86.52
2023-03-14T05:09:14.421Z,86.73
2023-03-14T05:11:40.754Z,86.77
2023-03-14T05:14:07.299Z,86.84
2023-03-14T05:16:33.726Z,86.95
2023-03-14T05:19:00.136Z,86.90
2023-03-14T05:21:26.475Z,87.05
2023-03-14T05:23:53.075Z,86.85
2023-03-14T05:26:19.404Z,86.91
2023-03-14T05:28:45.725Z,86.59
2023-03-14T05:31:12.087Z,86.54
2023-03-14T05:33:38.867Z,86.58
2023-03-14T05:36:05.293Z,86.61
2023-03-14T05:38:31.647Z,86.70
2023-03-14T05:40:57.980Z,86.83
2023-03-14T05:43:24.318Z,86.71
2023-03-14T05:45:50.708Z,86.22
2023-03-14T05:48:17.093Z,86.26
2023-03-14T05:50:43.418Z,86.63
2023-03-14T05:53:09.736Z,86.79
2023-03-14T05:55:36.064Z,87.01
2023-03-14T05:58:02.422Z,86.99
2023-03-14T06:00:28.751Z,86.84
2023-03-14T06:02:55.119Z,86.96
2023-03-14T06:05:21.456Z,86.81
2023-03-14T06:07:47.806Z,86.90
2023-03-14T06:10:14.166Z,86.81
2023-03-14T06:12:40.759Z,86.92
2023-03-14T06:15:07.092Z,86.81
2023-03-14T06:17:33.659Z,86.97
2023-03-14T06:20:00.217Z,86.89
2023-03-14T06:22:26.760Z,86.97
2023-03-14T06:24:53.083Z,86.69
2023-03-14T06:27:19.419Z,86.56
2023-03-14T06:29:46.001Z,86.67
2023-03-14T06:32:12.344Z,86.79
2023-03-14T06:34:38.686Z,87.02
2023-03-14T06:37:05.039Z,86.54
2023-03-14T06:39:31.374Z,86.65
2023-03-14T06:41:57.714Z,86.82
2023-03-14T06:44:24.246Z,86.97
2023-03-14T06:46:50.581Z,87.02
2023-03-14T06:49:17.371Z,86.80
2023-03-14T06:51:43.703Z,86.81
2023-03-14T06:54:10.032Z,86.87
2023-03-14T06:56:36.381Z,86.86
2023-03-14T06:59:02.964Z,86.79
2023-03-14T07:01:29.431Z,86.68
2023-03-14T07:03:55.854Z,86.34
2023-03-14T07:06:22.348Z,86.44
2023-03-14T07:08:49.395Z,86.54
2023-03-14T07:11:15.732Z,86.72
2023-03-14T07:13:42.067Z,86.77
2023-03-14T07:16:08.492Z,86.81
2023-03-14T07:18:34.898Z,86.71
2023-03-14T07:21:01.245Z,86.70
2023-03-14T07:23:30.775Z,86.74
2023-03-14T07:25:57.130Z,86.68
2023-03-14T07:28:23.497Z,86.71
2023-03-14T07:30:49.864Z,86.79
2023-03-14T07:33:16.210Z,86.69
2023-03-14T07:35:42.628Z,86.40
2023-03-14T07:38:08.997Z,86.54
2023-03-14T07:40:35.809Z,86.64
2023-03-14T07:43:02.144Z,86.64
2023-03-14T07:45:28.552Z,86.75
2023-03-14T07:47:55.436Z,86.81
2023-03-14T07:50:21.773Z,86.86
2023-03-14T07:52:48.098Z,86.52
2023-03-14T07:55:15.672Z,86.46
2023-03-14T07:57:42.017Z,86.45
2023-03-14T08:00:11.443Z,86.74
2023-03-14T08:02:37.881Z,86.73
2023-03-14T08:05:05.024Z,86.69
2023-03-14T08:07:31.367Z,86.33
2023-03-14T08:09:58.250Z,86.19
2023-03-14T08:12:24.596Z,86.10
2023-03-14T08:14:50.932Z,86.26
2023-03-14T08:17:18.860Z,86.25
2023-03-14T08:19:45.696Z,85.82
2023-03-14T08:22:12.797Z,85.83
2023-03-14T08:24:39.122Z,86.01
2023-03-14T08:27:05.561Z,85.86
2023-03-14T08:29:32.506Z,85.54
2023-03-14T08:31:58.876Z,85.72
2023-03-14T08:34:25.220Z,85.99
2023-03-14T08:36:51.552Z,86.30
2023-03-14T08:39:17.970Z,85.79
2023-03-14T08:41:44.327Z,85.80
2023-03-14T08:44:11.209Z,85.99
2023-03-14T08:46:38.160Z,86.37
2023-03-14T08:49:04.564Z,86.22
2023-03-14T08:51:31.429Z,86.07
2023-03-14T08:53:57.770Z,86.13
2023-03-14T08:56:26.049Z,86.21
2023-03-14T08:58:52.600Z,86.26
2023-03-14T09:01:18.969Z,86.18
2023-03-14T09:03:45.369Z,86.31
2023-03-14T09:06:11.726Z,86.37
2023-03-14T09:08:39.431Z,86.34
2023-03-14T09:11:06.040Z,86.22
2023-03-14T09:13:32.369Z,86.22
2023-03-14T09:15:58.743Z,86.27
2023-03-14T09:18:25.103Z,86.33
2023-03-14T09:20:51.458Z,86.52
2023-03-14T09:23:17.792Z,86.29
2023-03-14T09:25:44.677Z,86.51
2023-03-14T09:28:11.003Z,86.50
2023-03-14T09:30:37.328Z,86.34
2023-03-14T09:33:03.697Z,86.41
2023-03-14T09:35:30.267Z,86.38
2023-03-14T09:37:57.080Z,86.47
2023-03-14T09:40:24.921Z,86.13
2023-03-14T09:42:51.497Z,86.13
2023-03-14T09:45:17.831Z,86.16
2023-03-14T09:47:58.300Z,86.04
2023-03-14T09:50:25.307Z,86.05
2023-03-14T09:52:51.881Z,86.32
2023-03-14T09:55:18.212Z,86.39
2023-03-14T09:57:44.794Z,86.30
2023-03-14T10:00:11.161Z,86.23
2023-03-14T10:02:37.734Z,86.33
2023-03-14T10:05:07.228Z,86.44
2023-03-14T10:07:33.840Z,86.60
2023-03-14T10:10:01.455Z,86.33
2023-03-14T10:12:27.800Z,86.47
2023-03-14T10:14:54.142Z,86.46
2023-03-14T10:17:20.735Z,86.61
2023-03-14T10:19:47.371Z,86.63
2023-03-14T10:22:13.724Z,86.68
2023-03-14T10:24:40.089Z,86.47
2023-03-14T10:27:06.455Z,86.42
2023-03-14T10:29:33.541Z,86.36
2023-03-14T10:31:59.965Z,86.55
2023-03-14T10:34:26.339Z,86.28
2023-03-14T10:36:52.674Z,86.22
2023-03-14T10:39:19.021Z,86.18
2023-03-14T10:41:45.613Z,86.20
2023-03-14T10:44:12.259Z,86.37
2023-03-14T10:46:38.801Z,86.58
2023-03-14T10:49:05.168Z,86.58
2023-03-14T10:51:31.494Z,86.38
2023-03-14T10:53:57.824Z,86.20
2023-03-14T10:56:24.172Z,86.17
2023-03-14T10:58:50.508Z,86.25
2023-03-14T11:01:16.910Z,86.13
2023-03-14T11:03:43.287Z,86.06
2023-03-14T11:06:09.639Z,86.26
2023-03-14T11:08:36.019Z,86.42
2023-03-14T11:11:02.334Z,86.43
2023-03-14T11:13:28.680Z,86.40
2023-03-14T11:15:55.253Z,86.59
2023-03-14T11:18:21.602Z,86.56
2023-03-14T11:20:47.956Z,86.45
2023-03-14T11:23:14.308Z,86.04
2023-03-14T11:25:40.644Z,86.20
2023-03-14T11:28:06.996Z,86.24
2023-03-14T11:30:33.338Z,86.17
2023-03-14T11:32:59.732Z,86.24
2023-03-14T11:35:26.088Z,86.63
2023-03-14T11:37:52.878Z,86.39
2023-03-14T11:40:19.283Z,86.61
2023-03-14T11:42:45.622Z,86.34
2023-03-14T11:45:11.960Z,86.20
2023-03-14T11:47:38.317Z,86.50
2023-03-14T11:50:04.667Z,86.22
2023-03-14T11:52:30.986Z,86.61
2023-03-14T11:54:57.319Z,86.59
2023-03-14T11:57:23.654Z,86.17
2023-03-14T11:59:50.112Z,86.14
2023-03-14T12:02:16.455Z,85.83
2023-03-14T12:04:44.360Z,85.66
2023-03-14T12:07:11.114Z,85.66
2023-03-14T12:09:37.473Z,85.74
2023-03-14T12:12:03.817Z,85.53
2023-03-14T12:14:30.161Z,85.89
2023-03-14T12:16:57.303Z,86.22
2023-03-14T12:19:23.918Z,86.08
2023-03-14T12:21:50.266Z,85.92
2023-03-14T12:24:16.618Z,86.00
2023-03-14T12:26:42.967Z,85.80
2023-03-14T12:29:09.310Z,85.88
2023-03-14T12:31:35.736Z,85.78
2023-03-14T12:34:02.105Z,85.86
2023-03-14T12:36:28.427Z,86.12
2023-03-14T12:38:54.748Z,85.87
2023-03-14T12:41:21.395Z,85.73
2023-03-14T12:43:47.725Z,85.58
2023-03-14T12:46:14.205Z,85.95
2023-03-14T12:48:40.602Z,85.48
2023-03-14T12:51:07.015Z,85.99
2023-03-14T12:53:33.588Z,86.15
2023-03-14T12:55:59.924Z,85.86
2023-03-14T12:58:26.276Z,86.03
2023-03-14T13:00:52.632Z,85.03
2023-03-14T13:03:18.983Z,85.67
2023-03-14T13:05:45.313Z,85.88
2023-03-14T13:08:11.650Z,85.88
2023-03-14T13:10:39.094Z,85.68
2023-03-14T13:13:05.846Z,85.35
2023-03-14T13:15:32.446Z,85.56
2023-03-14T13:17:58.775Z,85.76
2023-03-14T13:20:25.120Z,85.97
2023-03-14T13:22:51.474Z,85.96
2023-03-14T13:25:17.825Z,85.42
2023-03-14T13:27:44.172Z,85.91
2023-03-14T13:30:10.514Z,86.21
2023-03-14T13:32:36.908Z,85.83
2023-03-14T13:35:03.283Z,85.85
2023-03-14T13:37:29.619Z,86.13
2023-03-14T13:39:56.005Z,85.58
2023-03-14T13:42:22.368Z,85.69
2023-03-14T13:44:48.700Z,85.41
2023-03-14T13:47:15.046Z,84.84
2023-03-14T13:49:41.381Z,85.24
2023-03-14T13:52:07.707Z,85.30
2023-03-14T13:54:34.059Z,85.31
2023-03-14T13:57:00.391Z,84.78
2023-03-14T13:59:26.740Z,85.17
2023-03-14T14:01:53.220Z,85.24
2023-03-14T14:04:19.605Z,85.60
2023-03-14T14:06:45.963Z,86.01
2023-03-14T14:09:12.303Z,85.76
2023-03-14T14:11:48.724Z,85.84
2023-03-14T14:14:17.491Z,86.02
2023-03-14T14:16:44.062Z,85.77
2023-03-14T14:19:10.402Z,85.88
2023-03-14T14:21:36.727Z,85.88
2023-03-14T14:24:03.057Z,86.04
2023-03-14T14:26:29.420Z,86.25
2023-03-14T14:28:55.784Z,86.04
2023-03-14T14:31:22.295Z,86.08
2023-03-14T14:33:48.704Z,86.11
2023-03-14T14:36:15.081Z,86.15
2023-03-14T14:38:41.508Z,86.18
2023-03-14T14:41:07.837Z,85.87
2023-03-14T14:43:34.200Z,86.09
2023-03-14T14:46:00.561Z,85.96
2023-03-14T14:48:26.959Z,85.76
2023-03-14T14:50:53.305Z,85.72
2023-03-14T14:53:19.649Z,85.75
2023-03-14T14:55:45.987Z,86.13
2023-03-14T14:58:12.615Z,86.12
2023-03-14T15:00:39.000Z,86.15
2023-03-14T15:03:05.427Z,86.12
2023-03-14T15:05:31.845Z,85.94
2023-03-14T15:07:58.236Z,85.93
2023-03-14T15:10:24.729Z,85.71
2023-03-14T15:12:51.189Z,86.04
2023-03-14T15:15:17.565Z,86.23
2023-03-14T15:17:43.916Z,86.22
2023-03-14T15:20:10.269Z,86.29
2023-03-14T15:22:36.604Z,86.01
2023-03-14T15:25:08.450Z,85.83
2023-03-14T15:27:37.381Z,86.01
2023-03-14T15:30:03.807Z,85.99
2023-03-14T15:32:30.202Z,86.10
2023-03-14T15:34:56.542Z,86.10
2023-03-14T15:37:22.884Z,85.72
2023-03-14T15:39:49.220Z,86.02
2023-03-14T15:42:15.785Z,85.81
2023-03-14T15:44:42.117Z,85.92
2023-03-14T15:47:08.443Z,85.90
2023-03-14T15:49:34.781Z,85.65
2023-03-14T15:52:01.107Z,85.60
2023-03-14T15:54:27.434Z,85.50
2023-03-14T15:56:53.768Z,85.70
2023-03-14T15:59:20.216Z,85.35
2023-03-14T16:01:46.535Z,84.91
2023-03-14T16:04:12.892Z,85.53
2023-03-14T16:06:39.239Z,85.31
2023-03-14T16:09:05.794Z,85.86
2023-03-14T16:11:32.120Z,85.81
2023-03-14T16:13:58.452Z,85.68
2023-03-14T16:16:24.810Z,85.84
2023-03-14T16:18:51.209Z,85.64
2023-03-14T16:21:17.555Z,85.32
2023-03-14T16:23:43.901Z,85.61
2023-03-14T16:26:10.240Z,85.55
2023-03-14T16:28:36.576Z,85.95
2023-03-14T16:31:02.911Z,86.11
2023-03-14T16:33:29.342Z,86.04
2023-03-14T16:35:56.070Z,85.71
2023-03-14T16:38:22.512Z,86.04
2023-03-14T16:40:48.841Z,86.00
2023-03-14T16:43:16.397Z,85.59
2023-03-14T16:45:42.939Z,85.74
2023-03-14T16:48:09.294Z,86.10
2023-03-14T16:50:35.627Z,86.27
2023-03-14T16:53:01.956Z,85.91
2023-03-14T16:55:28.427Z,85.63
2023-03-14T16:57:54.769Z,85.72
2023-03-14T17:00:21.099Z,86.06
2023-03-14T17:02:47.647Z,85.67
2023-03-14T17:05:14.011Z,85.96
2023-03-14T17:07:40.391Z,85.70
2023-03-14T17:10:06.734Z,85.67
2023-03-14T17:12:33.067Z,85.66
2023-03-14T17:14:59.612Z,85.52
2023-03-14T17:17:25.944Z,85.52
2023-03-14T17:19:52.298Z,85.62
2023-03-14T17:22:23.546Z,85.51
2023-03-14T17:24:50.494Z,85.67
2023-03-14T17:27:16.828Z,85.63
2023-03-14T17:29:43.154Z,85.56
2023-03-14T17:32:09.694Z,85.64
2023-03-14T17:34:36.038Z,85.62
2023-03-14T17:37:02.365Z,85.84
2023-03-14T17:39:28.702Z,86.03
2023-03-14T17:41:55.042Z,85.93
2023-03-14T17:44:21.552Z,86.06
2023-03-14T17:46:47.958Z,86.02
2023-03-14T17:49:14.352Z,85.88
2023-03-14T17:51:40.693Z,86.02
2023-03-14T17:54:07.247Z,86.13
2023-03-14T17:56:33.581Z,86.07
2023-03-14T17:58:59.919Z,85.83
2023-03-14T18:01:26.367Z,85.93
2023-03-14T18:03:52.803Z,86.27
2023-03-14T18:06:19.152Z,86.21
2023-03-14T18:08:45.498Z,86.06
2023-03-14T18:11:11.849Z,86.16
2023-03-14T18:13:38.586Z,86.13
2023-03-14T18:16:05.019Z,86.22
2023-03-14T18:18:31.369Z,85.73
2023-03-14T18:20:57.710Z,85.81
2023-03-14T18:23:24.269Z,85.80
2023-03-14T18:25:50.600Z,85.84
2023-03-14T18:28:16.949Z,85.98
2023-03-14T18:30:43.274Z,85.78
2023-03-14T18:33:09.606Z,85.90
2023-03-14T18:35:36.000Z,86.09
2023-03-14T18:38:02.362Z,86.25
2023-03-14T18:40:28.717Z,86.41
2023-03-14T18:42:55.057Z,86.27
2023-03-14T18:45:21.391Z,86.40
2023-03-14T18:47:47.749Z,86.39
2023-03-14T18:50:14.339Z,86.35
2023-03-14T18:52:40.687Z,86.19
2023-03-14T18:55:07.017Z,86.14
2023-03-14T18:57:33.342Z,86.01
2023-03-14T18:59:59.901Z,86.05
2023-03-14T19:02:26.323Z,86.11
2023-03-14T19:04:52.700Z,85.99
2023-03-14T19:07:19.048Z,85.78
2023-03-14T19:09:45.349Z,85.97
2023-03-14T19:12:11.689Z,85.99
2023-03-14T19:14:38.237Z,86.02
2023-03-14T19:17:04.577Z,86.14
2023-03-14T19:19:30.921Z,86.48
2023-03-14T19:21:57.248Z,86.33
2023-03-14T19:24:23.590Z,86.09
2023-03-14T19:26:51.114Z,86.15
2023-03-14T19:29:17.579Z,86.19
2023-03-14T19:31:43.973Z,86.41
2023-03-14T19:34:10.341Z,86.20
2023-03-14T19:36:36.691Z,86.20
2023-03-14T19:39:03.066Z,86.16
2023-03-14T19:41:29.425Z,86.22
2023-03-14T19:43:56.302Z,86.26
2023-03-14T19:46:22.652Z,86.14
2023-03-14T19:48:49.030Z,86.21
2023-03-14T19:51:15.863Z,86.19
2023-03-14T19:53:42.724Z,86.13
2023-03-14T19:56:09.076Z,86.30
2023-03-14T19:58:35.417Z,86.28
2023-03-14T20:01:01.836Z,86.29
2023-03-14T20:03:28.220Z,86.17
2023-03-14T20:05:54.581Z,86.49
2023-03-14T20:08:20.927Z,86.29
2023-03-14T20:10:48.784Z,86.27
2023-03-14T20:13:21.317Z,86.14
2023-03-14T20:15:48.798Z,86.07
2023-03-14T20:18:15.149Z,86.11
2023-03-14T20:20:41.493Z,86.37
2023-03-14T20:23:07.838Z,86.26
2023-03-14T20:25:34.394Z,86.17
2023-03-14T20:28:00.769Z,86.16
2023-03-14T20:30:27.100Z,86.14
2023-03-14T20:32:53.553Z,86.11
2023-03-14T20:35:20.565Z,86.34
2023-03-14T20:37:46.907Z,86.34
2023-03-14T20:40:13.250Z,86.29
2023-03-14T20:42:39.605Z,86.18
2023-03-14T20:45:06.475Z,86.10
2023-03-14T20:47:33.033Z,86.12
2023-03-14T20:49:59.355Z,86.09
2023-03-14T20:52:25.680Z,86.46
2023-03-14T20:54:52.023Z,85.95
2023-03-14T20:57:18.355Z,86.17
2023-03-14T20:59:44.704Z,86.27
2023-03-14T21:02:11.272Z,86.26
2023-03-14T21:04:37.949Z,86.33
2023-03-14T21:07:04.336Z,86.50
2023-03-14T21:09:31.177Z,86.38
2023-03-14T21:11:57.502Z,86.63
2023-03-14T21:14:24.054Z,86.81
2023-03-14T21:16:50.383Z,86.01
2023-03-14T21:19:16.710Z,86.36
2023-03-14T21:21:43.043Z,86.24
2023-03-14T21:24:09.372Z,86.29
2023-03-14T21:26:35.699Z,86.35
2023-03-14T21:29:02.038Z,86.36
2023-03-14T21:31:28.482Z,86.34
2023-03-14T21:33:55.051Z,86.60
2023-03-14T21:36:21.436Z,86.44
2023-03-14T21:38:47.763Z,86.27
2023-03-14T21:41:14.103Z,86.18
2023-03-14T21:43:40.480Z,86.15
2023-03-14T21:46:07.070Z,86.30
2023-03-14T21:48:33.424Z,86.22
2023-03-14T21:50:59.755Z,86.42
2023-03-14T21:53:26.096Z,86.39
2023-03-14T21:55:52.437Z,86.45
2023-03-14T21:58:18.770Z,86.27
2023-03-14T22:00:45.096Z,87.27
2023-03-14T22:03:13.533Z,87.18
2023-03-14T22:05:40.157Z,87.47
2023-03-14T22:08:06.757Z,87.75
2023-03-14T22:10:33.103Z,87.49
2023-03-14T22:12:59.647Z,87.40
2023-03-14T22:15:25.972Z,87.30
2023-03-14T22:17:52.329Z,86.61
2023-03-14T22:20:18.672Z,86.20
2023-03-14T22:22:45.446Z,87.11
2023-03-14T22:25:11.779Z,87.35
2023-03-14T22:27:38.109Z,88.32
2023-03-14T22:30:04.439Z,88.08
2023-03-14T22:32:30.887Z,87.66
2023-03-14T22:34:57.524Z,86.96
2023-03-14T22:37:23.871Z,87.75
2023-03-14T22:39:50.450Z,87.82
2023-03-14T22:42:16.819Z,88.09
2023-03-14T22:44:43.181Z,88.23
2023-03-14T22:47:09.526Z,88.30
2023-03-14T22:49:35.876Z,88.33
2023-03-14T22:52:02.266Z,88.39
2023-03-14T22:54:28.586Z,88.47
2023-03-14T22:56:54.950Z,88.74
2023-03-14T22:59:21.292Z,88.48
2023-03-14T23:01:47.642Z,88.21
2023-03-14T23:04:13.966Z,88.62
2023-03-14T23:06:40.315Z,87.86
2023-03-14T23:09:06.660Z,88.80
2023-03-14T23:11:33.224Z,88.40
2023-03-14T23:13:59.578Z,88.74
2023-03-14T23:16:34.051Z,88.77
2023-03-14T23:19:06.426Z,88.62
2023-03-14T23:21:32.976Z,88.28
2023-03-14T23:23:59.326Z,88.34
2023-03-14T23:26:25.878Z,88.23
2023-03-14T23:28:52.219Z,88.48
2023-03-14T23:31:18.564Z,88.32
2023-03-14T23:33:45.127Z,88.51
2023-03-14T23:36:11.669Z,88.29
2023-03-14T23:38:37.991Z,88.94
2023-03-14T23:41:04.328Z,89.12
2023-03-14T23:43:30.654Z,89.00
2023-03-14T23:45:57.027Z,88.88
2023-03-14T23:48:23.423Z,88.92
2023-03-14T23:50:49.766Z,88.93
2023-03-14T23:53:16.310Z,88.86
2023-03-14T23:55:42.648Z,89.07
2023-03-14T23:58:08.994Z,88.84
